sensor_id;sensor_type;location;lat;lon;timestamp;P1;durP1;ratioP1;P2;durP2;ratioP2
52104;SDS011;38103;42.776;23.112;2023-07-20T00:02:15;14.05;;;3.78;;
52104;SDS011;38103;42.776;23.112;2023-07-20T00:04:40;11.95;;;4.00;;
52104;SDS011;38103;42.776;23.112;2023-07-20T00:07:05;10.57;;;3.47;;
52104;SDS011;38103;42.776;23.112;2023-07-20T00:09:31;14.07;;;4.30;;
52104;SDS011;38103;42.776;23.112;2023-07-20T00:11:56;14.00;;;4.38;;
52104;SDS011;38103;42.776;23.112;2023-07-20T00:14:22;14.00;;;4.25;;
52104;SDS011;38103;42.776;23.112;2023-07-20T00:16:49;15.75;;;4.75;;
52104;SDS011;38103;42.776;23.112;2023-07-20T00:19:20;17.40;;;4.00;;
52104;SDS011;38103;42.776;23.112;2023-07-20T00:21:49;15.65;;;4.20;;
52104;SDS011;38103;42.776;23.112;2023-07-20T00:24:14;13.05;;;4.45;;
52104;SDS011;38103;42.776;23.112;2023-07-20T00:26:40;14.05;;;4.50;;
52104;SDS011;38103;42.776;23.112;2023-07-20T00:29:05;14.30;;;4.40;;
52104;SDS011;38103;42.776;23.112;2023-07-20T00:31:30;12.95;;;4.10;;
52104;SDS011;38103;42.776;23.112;2023-07-20T00:33:56;12.80;;;4.38;;
52104;SDS011;38103;42.776;23.112;2023-07-20T00:36:21;13.57;;;4.60;;
52104;SDS011;38103;42.776;23.112;2023-07-20T00:38:47;13.40;;;4.68;;
52104;SDS011;38103;42.776;23.112;2023-07-20T00:41:12;17.00;;;4.95;;
52104;SDS011;38103;42.776;23.112;2023-07-20T00:43:38;14.30;;;4.97;;
52104;SDS011;38103;42.776;23.112;2023-07-20T00:46:03;24.77;;;4.60;;
52104;SDS011;38103;42.776;23.112;2023-07-20T00:48:30;15.88;;;4.65;;
52104;SDS011;38103;42.776;23.112;2023-07-20T00:50:57;16.02;;;5.03;;
52104;SDS011;38103;42.776;23.112;2023-07-20T00:53:24;15.15;;;4.93;;
52104;SDS011;38103;42.776;23.112;2023-07-20T00:55:50;16.67;;;4.57;;
52104;SDS011;38103;42.776;23.112;2023-07-20T00:58:15;16.10;;;4.63;;
52104;SDS011;38103;42.776;23.112;2023-07-20T01:00:41;15.13;;;4.63;;
52104;SDS011;38103;42.776;23.112;2023-07-20T01:03:06;17.58;;;5.07;;
52104;SDS011;38103;42.776;23.112;2023-07-20T01:05:42;18.40;;;4.88;;
52104;SDS011;38103;42.776;23.112;2023-07-20T01:10:56;15.82;;;4.35;;
52104;SDS011;38103;42.776;23.112;2023-07-20T01:13:25;17.63;;;4.90;;
52104;SDS011;38103;42.776;23.112;2023-07-20T01:16:00;14.32;;;4.47;;
52104;SDS011;38103;42.776;23.112;2023-07-20T01:18:26;17.30;;;4.85;;
52104;SDS011;38103;42.776;23.112;2023-07-20T01:20:52;15.85;;;4.78;;
52104;SDS011;38103;42.776;23.112;2023-07-20T01:23:38;17.75;;;5.00;;
52104;SDS011;38103;42.776;23.112;2023-07-20T01:31:36;14.85;;;4.50;;
52104;SDS011;38103;42.776;23.112;2023-07-20T01:34:03;14.38;;;4.78;;
52104;SDS011;38103;42.776;23.112;2023-07-20T01:36:32;17.42;;;4.68;;
52104;SDS011;38103;42.776;23.112;2023-07-20T01:38:59;22.52;;;5.45;;
52104;SDS011;38103;42.776;23.112;2023-07-20T01:41:25;22.33;;;5.00;;
52104;SDS011;38103;42.776;23.112;2023-07-20T01:43:50;14.35;;;4.47;;
52104;SDS011;38103;42.776;23.112;2023-07-20T01:46:16;18.33;;;5.13;;
52104;SDS011;38103;42.776;23.112;2023-07-20T01:48:41;15.20;;;4.40;;
52104;SDS011;38103;42.776;23.112;2023-07-20T01:51:07;16.35;;;5.00;;
52104;SDS011;38103;42.776;23.112;2023-07-20T01:53:32;15.00;;;4.70;;
52104;SDS011;38103;42.776;23.112;2023-07-20T01:55:58;14.43;;;5.00;;
52104;SDS011;38103;42.776;23.112;2023-07-20T01:58:23;16.15;;;4.80;;
52104;SDS011;38103;42.776;23.112;2023-07-20T02:00:49;16.27;;;4.80;;
52104;SDS011;38103;42.776;23.112;2023-07-20T02:03:15;14.63;;;5.10;;
52104;SDS011;38103;42.776;23.112;2023-07-20T02:05:43;15.25;;;4.70;;
52104;SDS011;38103;42.776;23.112;2023-07-20T02:08:09;15.27;;;4.88;;
52104;SDS011;38103;42.776;23.112;2023-07-20T02:10:35;17.08;;;5.15;;
52104;SDS011;38103;42.776;23.112;2023-07-20T02:13:00;15.07;;;4.72;;
52104;SDS011;38103;42.776;23.112;2023-07-20T02:15:26;17.45;;;5.45;;
52104;SDS011;38103;42.776;23.112;2023-07-20T02:17:52;17.63;;;4.90;;
52104;SDS011;38103;42.776;23.112;2023-07-20T02:20:17;14.38;;;5.00;;
52104;SDS011;38103;42.776;23.112;2023-07-20T02:22:44;16.85;;;4.88;;
52104;SDS011;38103;42.776;23.112;2023-07-20T02:25:09;14.25;;;4.38;;
52104;SDS011;38103;42.776;23.112;2023-07-20T02:27:35;14.93;;;5.00;;
52104;SDS011;38103;42.776;23.112;2023-07-20T02:30:01;16.25;;;4.80;;
52104;SDS011;38103;42.776;23.112;2023-07-20T02:32:27;16.10;;;4.53;;
52104;SDS011;38103;42.776;23.112;2023-07-20T02:34:53;14.05;;;4.68;;
52104;SDS011;38103;42.776;23.112;2023-07-20T02:37:18;14.15;;;4.68;;
52104;SDS011;38103;42.776;23.112;2023-07-20T02:39:44;19.27;;;4.93;;
52104;SDS011;38103;42.776;23.112;2023-07-20T02:42:09;13.80;;;4.30;;
52104;SDS011;38103;42.776;23.112;2023-07-20T02:44:35;14.57;;;4.90;;
52104;SDS011;38103;42.776;23.112;2023-07-20T02:47:00;14.57;;;4.20;;
52104;SDS011;38103;42.776;23.112;2023-07-20T02:49:26;12.70;;;4.50;;
52104;SDS011;38103;42.776;23.112;2023-07-20T02:51:51;14.57;;;4.57;;
52104;SDS011;38103;42.776;23.112;2023-07-20T02:54:17;13.45;;;4.47;;
52104;SDS011;38103;42.776;23.112;2023-07-20T02:56:42;20.25;;;4.95;;
52104;SDS011;38103;42.776;23.112;2023-07-20T02:59:08;18.77;;;5.40;;
52104;SDS011;38103;42.776;23.112;2023-07-20T03:01:33;21.65;;;9.15;;
52104;SDS011;38103;42.776;23.112;2023-07-20T03:03:59;29.13;;;14.13;;
52104;SDS011;38103;42.776;23.112;2023-07-20T03:06:24;34.80;;;20.88;;
52104;SDS011;38103;42.776;23.112;2023-07-20T03:08:49;31.83;;;15.70;;
52104;SDS011;38103;42.776;23.112;2023-07-20T03:11:17;19.05;;;8.40;;
52104;SDS011;38103;42.776;23.112;2023-07-20T03:13:44;18.80;;;9.20;;
52104;SDS011;38103;42.776;23.112;2023-07-20T03:16:13;17.48;;;5.97;;
52104;SDS011;38103;42.776;23.112;2023-07-20T03:18:40;23.38;;;7.45;;
52104;SDS011;38103;42.776;23.112;2023-07-20T03:21:09;58.60;;;30.27;;
52104;SDS011;38103;42.776;23.112;2023-07-20T03:23:38;145.20;;;89.38;;
52104;SDS011;38103;42.776;23.112;2023-07-20T03:26:04;155.50;;;103.88;;
52104;SDS011;38103;42.776;23.112;2023-07-20T03:28:30;129.55;;;83.22;;
52104;SDS011;38103;42.776;23.112;2023-07-20T03:30:56;80.82;;;45.95;;
52104;SDS011;38103;42.776;23.112;2023-07-20T03:33:22;63.45;;;40.28;;
52104;SDS011;38103;42.776;23.112;2023-07-20T03:35:50;42.63;;;21.90;;
52104;SDS011;38103;42.776;23.112;2023-07-20T03:38:15;16.10;;;5.47;;
52104;SDS011;38103;42.776;23.112;2023-07-20T03:40:48;23.88;;;7.05;;
52104;SDS011;38103;42.776;23.112;2023-07-20T03:43:31;18.98;;;5.68;;
52104;SDS011;38103;42.776;23.112;2023-07-20T03:45:57;20.77;;;6.72;;
52104;SDS011;38103;42.776;23.112;2023-07-20T03:48:23;27.80;;;13.27;;
52104;SDS011;38103;42.776;23.112;2023-07-20T03:50:49;25.20;;;13.25;;
52104;SDS011;38103;42.776;23.112;2023-07-20T03:53:17;26.50;;;11.90;;
52104;SDS011;38103;42.776;23.112;2023-07-20T03:55:48;28.02;;;12.80;;
52104;SDS011;38103;42.776;23.112;2023-07-20T03:58:15;28.50;;;10.30;;
52104;SDS011;38103;42.776;23.112;2023-07-20T04:00:47;27.17;;;9.23;;
52104;SDS011;38103;42.776;23.112;2023-07-20T04:03:16;25.80;;;10.05;;
52104;SDS011;38103;42.776;23.112;2023-07-20T04:05:43;26.65;;;11.48;;
52104;SDS011;38103;42.776;23.112;2023-07-20T04:08:09;24.88;;;12.80;;
52104;SDS011;38103;42.776;23.112;2023-07-20T04:10:36;26.13;;;13.52;;
52104;SDS011;38103;42.776;23.112;2023-07-20T04:13:01;36.22;;;19.42;;
52104;SDS011;38103;42.776;23.112;2023-07-20T04:15:26;39.17;;;28.40;;
52104;SDS011;38103;42.776;23.112;2023-07-20T04:17:52;50.17;;;38.20;;
52104;SDS011;38103;42.776;23.112;2023-07-20T04:20:17;37.78;;;21.58;;
52104;SDS011;38103;42.776;23.112;2023-07-20T04:22:43;32.85;;;18.90;;
52104;SDS011;38103;42.776;23.112;2023-07-20T04:25:08;40.90;;;22.92;;
52104;SDS011;38103;42.776;23.112;2023-07-20T04:27:35;41.90;;;25.20;;
52104;SDS011;38103;42.776;23.112;2023-07-20T04:30:00;30.13;;;14.48;;
52104;SDS011;38103;42.776;23.112;2023-07-20T04:32:27;28.70;;;13.27;;
52104;SDS011;38103;42.776;23.112;2023-07-20T04:34:53;41.78;;;20.27;;
52104;SDS011;38103;42.776;23.112;2023-07-20T04:37:18;24.05;;;11.40;;
52104;SDS011;38103;42.776;23.112;2023-07-20T04:39:44;25.13;;;11.93;;
52104;SDS011;38103;42.776;23.112;2023-07-20T04:42:09;23.80;;;12.32;;
52104;SDS011;38103;42.776;23.112;2023-07-20T04:44:34;32.08;;;14.95;;
52104;SDS011;38103;42.776;23.112;2023-07-20T04:47:00;24.08;;;13.18;;
52104;SDS011;38103;42.776;23.112;2023-07-20T04:49:25;17.70;;;6.43;;
52104;SDS011;38103;42.776;23.112;2023-07-20T04:51:51;14.27;;;4.40;;
52104;SDS011;38103;42.776;23.112;2023-07-20T04:54:16;20.50;;;4.63;;
52104;SDS011;38103;42.776;23.112;2023-07-20T04:56:43;14.65;;;4.20;;
52104;SDS011;38103;42.776;23.112;2023-07-20T04:59:09;16.27;;;4.10;;
52104;SDS011;38103;42.776;23.112;2023-07-20T05:01:34;14.95;;;4.53;;
52104;SDS011;38103;42.776;23.112;2023-07-20T05:03:59;16.60;;;4.78;;
52104;SDS011;38103;42.776;23.112;2023-07-20T05:06:25;16.33;;;4.57;;
52104;SDS011;38103;42.776;23.112;2023-07-20T05:08:51;18.75;;;4.93;;
52104;SDS011;38103;42.776;23.112;2023-07-20T05:11:16;20.65;;;4.78;;
52104;SDS011;38103;42.776;23.112;2023-07-20T05:13:41;14.77;;;4.47;;
52104;SDS011;38103;42.776;23.112;2023-07-20T05:16:07;16.58;;;4.80;;
52104;SDS011;38103;42.776;23.112;2023-07-20T05:18:32;15.98;;;4.90;;
52104;SDS011;38103;42.776;23.112;2023-07-20T05:20:57;16.15;;;5.32;;
52104;SDS011;38103;42.776;23.112;2023-07-20T05:23:23;13.85;;;4.50;;
52104;SDS011;38103;42.776;23.112;2023-07-20T05:25:55;19.05;;;5.20;;
52104;SDS011;38103;42.776;23.112;2023-07-20T05:28:24;14.07;;;4.25;;
52104;SDS011;38103;42.776;23.112;2023-07-20T05:30:51;19.75;;;4.70;;
52104;SDS011;38103;42.776;23.112;2023-07-20T05:33:17;14.68;;;5.50;;
52104;SDS011;38103;42.776;23.112;2023-07-20T05:35:43;16.35;;;5.20;;
52104;SDS011;38103;42.776;23.112;2023-07-20T05:38:08;15.45;;;5.10;;
52104;SDS011;38103;42.776;23.112;2023-07-20T05:40:35;14.10;;;5.07;;
52104;SDS011;38103;42.776;23.112;2023-07-20T05:43:10;17.23;;;5.05;;
52104;SDS011;38103;42.776;23.112;2023-07-20T05:45:36;18.15;;;4.97;;
52104;SDS011;38103;42.776;23.112;2023-07-20T05:48:02;19.33;;;5.68;;
52104;SDS011;38103;42.776;23.112;2023-07-20T05:50:27;14.85;;;4.88;;
52104;SDS011;38103;42.776;23.112;2023-07-20T05:52:53;16.75;;;5.45;;
52104;SDS011;38103;42.776;23.112;2023-07-20T05:55:19;20.17;;;5.30;;
52104;SDS011;38103;42.776;23.112;2023-07-20T05:57:44;14.63;;;5.15;;
52104;SDS011;38103;42.776;23.112;2023-07-20T06:00:10;15.88;;;4.53;;
52104;SDS011;38103;42.776;23.112;2023-07-20T06:02:37;16.38;;;5.60;;
52104;SDS011;38103;42.776;23.112;2023-07-20T06:05:03;18.33;;;5.18;;
52104;SDS011;38103;42.776;23.112;2023-07-20T06:07:28;12.90;;;4.63;;
52104;SDS011;38103;42.776;23.112;2023-07-20T06:09:54;15.25;;;5.15;;
52104;SDS011;38103;42.776;23.112;2023-07-20T06:12:19;16.83;;;4.75;;
52104;SDS011;38103;42.776;23.112;2023-07-20T06:14:45;19.35;;;5.50;;
52104;SDS011;38103;42.776;23.112;2023-07-20T06:17:11;19.02;;;4.95;;
52104;SDS011;38103;42.776;23.112;2023-07-20T06:19:36;17.38;;;5.15;;
52104;SDS011;38103;42.776;23.112;2023-07-20T06:22:02;15.20;;;4.35;;
52104;SDS011;38103;42.776;23.112;2023-07-20T06:24:27;19.83;;;4.80;;
52104;SDS011;38103;42.776;23.112;2023-07-20T06:26:53;15.07;;;4.85;;
52104;SDS011;38103;42.776;23.112;2023-07-20T06:29:18;15.95;;;4.90;;
52104;SDS011;38103;42.776;23.112;2023-07-20T06:31:44;16.67;;;5.22;;
52104;SDS011;38103;42.776;23.112;2023-07-20T06:34:09;21.55;;;4.82;;
52104;SDS011;38103;42.776;23.112;2023-07-20T06:36:35;18.40;;;4.50;;
52104;SDS011;38103;42.776;23.112;2023-07-20T06:39:00;16.35;;;5.10;;
52104;SDS011;38103;42.776;23.112;2023-07-20T06:41:27;17.30;;;5.18;;
52104;SDS011;38103;42.776;23.112;2023-07-20T06:43:52;16.42;;;4.65;;
52104;SDS011;38103;42.776;23.112;2023-07-20T06:46:22;18.65;;;4.82;;
52104;SDS011;38103;42.776;23.112;2023-07-20T06:48:48;16.13;;;4.72;;
52104;SDS011;38103;42.776;23.112;2023-07-20T06:51:14;15.65;;;4.93;;
52104;SDS011;38103;42.776;23.112;2023-07-20T06:53:39;14.63;;;4.65;;
52104;SDS011;38103;42.776;23.112;2023-07-20T06:56:04;14.30;;;4.43;;
52104;SDS011;38103;42.776;23.112;2023-07-20T06:58:30;13.45;;;4.32;;
52104;SDS011;38103;42.776;23.112;2023-07-20T07:00:55;21.88;;;5.40;;
52104;SDS011;38103;42.776;23.112;2023-07-20T07:03:20;17.55;;;5.60;;
52104;SDS011;38103;42.776;23.112;2023-07-20T07:05:46;17.42;;;5.68;;
52104;SDS011;38103;42.776;23.112;2023-07-20T07:08:12;21.20;;;4.90;;
52104;SDS011;38103;42.776;23.112;2023-07-20T07:10:37;16.42;;;5.55;;
52104;SDS011;38103;42.776;23.112;2023-07-20T07:13:03;13.00;;;4.43;;
52104;SDS011;38103;42.776;23.112;2023-07-20T07:15:29;18.58;;;5.70;;
52104;SDS011;38103;42.776;23.112;2023-07-20T07:17:54;15.13;;;4.88;;
52104;SDS011;38103;42.776;23.112;2023-07-20T07:20:20;19.08;;;4.85;;
52104;SDS011;38103;42.776;23.112;2023-07-20T07:22:46;14.25;;;5.05;;
52104;SDS011;38103;42.776;23.112;2023-07-20T07:25:12;18.50;;;5.18;;
52104;SDS011;38103;42.776;23.112;2023-07-20T07:27:37;19.58;;;4.97;;
52104;SDS011;38103;42.776;23.112;2023-07-20T07:30:03;15.10;;;4.97;;
52104;SDS011;38103;42.776;23.112;2023-07-20T07:32:29;14.68;;;5.10;;
52104;SDS011;38103;42.776;23.112;2023-07-20T07:34:55;17.25;;;5.70;;
52104;SDS011;38103;42.776;23.112;2023-07-20T07:37:23;16.00;;;5.10;;
52104;SDS011;38103;42.776;23.112;2023-07-20T07:39:48;18.83;;;5.07;;
52104;SDS011;38103;42.776;23.112;2023-07-20T07:42:14;18.17;;;4.93;;
52104;SDS011;38103;42.776;23.112;2023-07-20T07:44:39;19.52;;;4.50;;
52104;SDS011;38103;42.776;23.112;2023-07-20T07:47:04;15.85;;;4.30;;
52104;SDS011;38103;42.776;23.112;2023-07-20T07:49:30;15.02;;;4.43;;
52104;SDS011;38103;42.776;23.112;2023-07-20T07:51:56;16.15;;;4.10;;
52104;SDS011;38103;42.776;23.112;2023-07-20T07:54:22;11.55;;;3.80;;
52104;SDS011;38103;42.776;23.112;2023-07-20T07:56:47;19.55;;;4.05;;
52104;SDS011;38103;42.776;23.112;2023-07-20T07:59:12;20.63;;;3.60;;
52104;SDS011;38103;42.776;23.112;2023-07-20T08:01:38;22.05;;;4.10;;
52104;SDS011;38103;42.776;23.112;2023-07-20T08:04:03;17.13;;;3.72;;
52104;SDS011;38103;42.776;23.112;2023-07-20T08:06:28;20.90;;;4.22;;
52104;SDS011;38103;42.776;23.112;2023-07-20T08:08:54;15.25;;;4.10;;
52104;SDS011;38103;42.776;23.112;2023-07-20T08:11:19;14.45;;;3.70;;
52104;SDS011;38103;42.776;23.112;2023-07-20T08:13:45;15.00;;;4.00;;
52104;SDS011;38103;42.776;23.112;2023-07-20T08:16:10;22.67;;;3.85;;
52104;SDS011;38103;42.776;23.112;2023-07-20T08:18:35;18.42;;;4.03;;
52104;SDS011;38103;42.776;23.112;2023-07-20T08:21:01;12.35;;;3.67;;
52104;SDS011;38103;42.776;23.112;2023-07-20T08:23:26;15.98;;;4.25;;
52104;SDS011;38103;42.776;23.112;2023-07-20T08:25:53;12.10;;;3.60;;
52104;SDS011;38103;42.776;23.112;2023-07-20T08:28:18;14.10;;;3.65;;
52104;SDS011;38103;42.776;23.112;2023-07-20T08:30:48;12.23;;;3.72;;
52104;SDS011;38103;42.776;23.112;2023-07-20T08:33:15;18.23;;;3.72;;
52104;SDS011;38103;42.776;23.112;2023-07-20T08:35:43;14.52;;;4.22;;
52104;SDS011;38103;42.776;23.112;2023-07-20T08:38:08;14.02;;;3.42;;
52104;SDS011;38103;42.776;23.112;2023-07-20T08:40:35;15.95;;;3.78;;
52104;SDS011;38103;42.776;23.112;2023-07-20T08:43:04;13.23;;;3.35;;
52104;SDS011;38103;42.776;23.112;2023-07-20T08:45:30;22.20;;;3.90;;
52104;SDS011;38103;42.776;23.112;2023-07-20T08:47:58;12.63;;;3.45;;
52104;SDS011;38103;42.776;23.112;2023-07-20T08:50:26;13.63;;;3.55;;
52104;SDS011;38103;42.776;23.112;2023-07-20T08:52:53;11.18;;;3.45;;
52104;SDS011;38103;42.776;23.112;2023-07-20T08:55:21;12.93;;;3.33;;
52104;SDS011;38103;42.776;23.112;2023-07-20T08:57:49;17.50;;;3.53;;
52104;SDS011;38103;42.776;23.112;2023-07-20T09:00:16;14.73;;;3.72;;
52104;SDS011;38103;42.776;23.112;2023-07-20T09:02:44;11.57;;;3.35;;
52104;SDS011;38103;42.776;23.112;2023-07-20T09:05:10;16.38;;;4.07;;
52104;SDS011;38103;42.776;23.112;2023-07-20T09:07:38;9.63;;;2.97;;
52104;SDS011;38103;42.776;23.112;2023-07-20T09:10:04;13.13;;;3.78;;
52104;SDS011;38103;42.776;23.112;2023-07-20T09:12:31;11.82;;;3.40;;
52104;SDS011;38103;42.776;23.112;2023-07-20T09:14:59;13.20;;;3.72;;
52104;SDS011;38103;42.776;23.112;2023-07-20T09:17:26;13.30;;;3.20;;
52104;SDS011;38103;42.776;23.112;2023-07-20T09:19:52;10.90;;;3.60;;
52104;SDS011;38103;42.776;23.112;2023-07-20T09:22:17;13.85;;;3.40;;
52104;SDS011;38103;42.776;23.112;2023-07-20T09:24:43;14.93;;;3.45;;
52104;SDS011;38103;42.776;23.112;2023-07-20T09:27:09;15.80;;;3.53;;
52104;SDS011;38103;42.776;23.112;2023-07-20T09:29:50;17.88;;;3.90;;
52104;SDS011;38103;42.776;23.112;2023-07-20T09:32:20;14.13;;;3.78;;
52104;SDS011;38103;42.776;23.112;2023-07-20T09:34:46;14.93;;;3.40;;
52104;SDS011;38103;42.776;23.112;2023-07-20T09:37:12;16.58;;;3.60;;
52104;SDS011;38103;42.776;23.112;2023-07-20T09:39:44;13.57;;;3.13;;
52104;SDS011;38103;42.776;23.112;2023-07-20T09:42:11;12.45;;;3.47;;
52104;SDS011;38103;42.776;23.112;2023-07-20T09:44:38;15.85;;;3.97;;
52104;SDS011;38103;42.776;23.112;2023-07-20T09:47:04;13.75;;;3.45;;
52104;SDS011;38103;42.776;23.112;2023-07-20T09:49:30;13.95;;;3.35;;
52104;SDS011;38103;42.776;23.112;2023-07-20T09:51:55;15.98;;;3.50;;
52104;SDS011;38103;42.776;23.112;2023-07-20T09:54:24;14.93;;;2.92;;
52104;SDS011;38103;42.776;23.112;2023-07-20T09:56:51;14.15;;;3.13;;
52104;SDS011;38103;42.776;23.112;2023-07-20T09:59:17;21.70;;;3.63;;
52104;SDS011;38103;42.776;23.112;2023-07-20T10:01:43;11.80;;;3.33;;
52104;SDS011;38103;42.776;23.112;2023-07-20T10:04:11;11.98;;;3.15;;
52104;SDS011;38103;42.776;23.112;2023-07-20T10:06:42;12.85;;;3.05;;
52104;SDS011;38103;42.776;23.112;2023-07-20T10:09:08;19.95;;;3.53;;
52104;SDS011;38103;42.776;23.112;2023-07-20T10:11:36;10.90;;;3.22;;
52104;SDS011;38103;42.776;23.112;2023-07-20T10:14:05;10.88;;;3.10;;
52104;SDS011;38103;42.776;23.112;2023-07-20T10:16:36;12.88;;;2.80;;
52104;SDS011;38103;42.776;23.112;2023-07-20T10:21:42;14.80;;;3.17;;
52104;SDS011;38103;42.776;23.112;2023-07-20T10:24:16;13.20;;;2.97;;
52104;SDS011;38103;42.776;23.112;2023-07-20T10:26:43;19.98;;;3.92;;
52104;SDS011;38103;42.776;23.112;2023-07-20T10:29:09;13.88;;;3.38;;
52104;SDS011;38103;42.776;23.112;2023-07-20T10:31:35;18.27;;;3.50;;
52104;SDS011;38103;42.776;23.112;2023-07-20T10:34:02;11.98;;;3.25;;
52104;SDS011;38103;42.776;23.112;2023-07-20T10:36:28;78.03;;;50.80;;
52104;SDS011;38103;42.776;23.112;2023-07-20T10:38:54;15.85;;;4.32;;
52104;SDS011;38103;42.776;23.112;2023-07-20T10:43:49;12.95;;;4.45;;
52104;SDS011;38103;42.776;23.112;2023-07-20T10:46:33;14.98;;;4.50;;
52104;SDS011;38103;42.776;23.112;2023-07-20T10:49:05;15.13;;;3.78;;
52104;SDS011;38103;42.776;23.112;2023-07-20T10:51:46;10.95;;;3.92;;
52104;SDS011;38103;42.776;23.112;2023-07-20T10:56:41;120.13;;;57.22;;
52104;SDS011;38103;42.776;23.112;2023-07-20T10:59:17;12.35;;;3.42;;
52104;SDS011;38103;42.776;23.112;2023-07-20T11:01:44;12.27;;;3.63;;
52104;SDS011;38103;42.776;23.112;2023-07-20T11:04:10;11.50;;;3.30;;
52104;SDS011;38103;42.776;23.112;2023-07-20T11:06:36;14.02;;;3.30;;
52104;SDS011;38103;42.776;23.112;2023-07-20T11:11:36;17.38;;;3.72;;
52104;SDS011;38103;42.776;23.112;2023-07-20T11:14:07;15.25;;;3.75;;
52104;SDS011;38103;42.776;23.112;2023-07-20T11:16:34;18.00;;;5.40;;
52104;SDS011;38103;42.776;23.112;2023-07-20T11:19:05;23.40;;;8.73;;
52104;SDS011;38103;42.776;23.112;2023-07-20T11:21:38;17.85;;;7.05;;
52104;SDS011;38103;42.776;23.112;2023-07-20T11:24:06;12.77;;;3.60;;
52104;SDS011;38103;42.776;23.112;2023-07-20T11:29:15;12.27;;;4.43;;
52104;SDS011;38103;42.776;23.112;2023-07-20T11:31:42;13.30;;;3.92;;
52104;SDS011;38103;42.776;23.112;2023-07-20T11:34:21;16.88;;;5.72;;
52104;SDS011;38103;42.776;23.112;2023-07-20T11:36:47;14.85;;;4.10;;
52104;SDS011;38103;42.776;23.112;2023-07-20T11:39:15;16.58;;;3.90;;
52104;SDS011;38103;42.776;23.112;2023-07-20T11:41:52;12.77;;;3.70;;
52104;SDS011;38103;42.776;23.112;2023-07-20T11:44:19;17.80;;;3.95;;
52104;SDS011;38103;42.776;23.112;2023-07-20T11:46:59;26.80;;;6.38;;
52104;SDS011;38103;42.776;23.112;2023-07-20T11:49:26;16.35;;;4.00;;
52104;SDS011;38103;42.776;23.112;2023-07-20T11:51:51;12.35;;;3.53;;
52104;SDS011;38103;42.776;23.112;2023-07-20T11:54:18;14.10;;;3.83;;
52104;SDS011;38103;42.776;23.112;2023-07-20T11:56:43;14.40;;;3.92;;
52104;SDS011;38103;42.776;23.112;2023-07-20T11:59:09;14.60;;;3.92;;
52104;SDS011;38103;42.776;23.112;2023-07-20T12:01:34;16.65;;;3.90;;
52104;SDS011;38103;42.776;23.112;2023-07-20T12:04:00;17.42;;;3.60;;
52104;SDS011;38103;42.776;23.112;2023-07-20T12:06:28;12.27;;;3.20;;
52104;SDS011;38103;42.776;23.112;2023-07-20T12:08:58;12.60;;;3.28;;
52104;SDS011;38103;42.776;23.112;2023-07-20T12:11:34;16.95;;;3.80;;
52104;SDS011;38103;42.776;23.112;2023-07-20T12:14:04;14.70;;;3.58;;
52104;SDS011;38103;42.776;23.112;2023-07-20T12:16:32;14.65;;;3.42;;
52104;SDS011;38103;42.776;23.112;2023-07-20T12:19:01;14.15;;;3.55;;
52104;SDS011;38103;42.776;23.112;2023-07-20T12:21:39;12.60;;;3.42;;
52104;SDS011;38103;42.776;23.112;2023-07-20T12:24:07;11.98;;;3.30;;
52104;SDS011;38103;42.776;23.112;2023-07-20T12:26:34;12.00;;;4.00;;
52104;SDS011;38103;42.776;23.112;2023-07-20T12:29:00;13.75;;;3.50;;
52104;SDS011;38103;42.776;23.112;2023-07-20T12:31:26;16.35;;;3.92;;
52104;SDS011;38103;42.776;23.112;2023-07-20T12:33:52;13.88;;;3.50;;
52104;SDS011;38103;42.776;23.112;2023-07-20T12:36:20;13.30;;;3.47;;
52104;SDS011;38103;42.776;23.112;2023-07-20T12:38:46;11.90;;;3.42;;
52104;SDS011;38103;42.776;23.112;2023-07-20T12:41:12;13.90;;;3.60;;
52104;SDS011;38103;42.776;23.112;2023-07-20T12:43:44;12.60;;;3.72;;
52104;SDS011;38103;42.776;23.112;2023-07-20T12:46:11;16.08;;;3.90;;
52104;SDS011;38103;42.776;23.112;2023-07-20T12:48:38;13.25;;;3.28;;
52104;SDS011;38103;42.776;23.112;2023-07-20T12:51:05;13.88;;;3.28;;
52104;SDS011;38103;42.776;23.112;2023-07-20T12:53:31;17.02;;;3.60;;
52104;SDS011;38103;42.776;23.112;2023-07-20T12:55:58;15.13;;;3.45;;
52104;SDS011;38103;42.776;23.112;2023-07-20T12:58:24;13.38;;;3.33;;
52104;SDS011;38103;42.776;23.112;2023-07-20T13:00:49;11.45;;;3.20;;
52104;SDS011;38103;42.776;23.112;2023-07-20T13:03:15;12.23;;;3.47;;
52104;SDS011;38103;42.776;23.112;2023-07-20T13:05:41;12.15;;;3.30;;
52104;SDS011;38103;42.776;23.112;2023-07-20T13:08:06;14.00;;;3.30;;
52104;SDS011;38103;42.776;23.112;2023-07-20T13:10:32;13.95;;;3.40;;
52104;SDS011;38103;42.776;23.112;2023-07-20T13:12:57;15.35;;;3.40;;
52104;SDS011;38103;42.776;23.112;2023-07-20T13:15:24;10.65;;;3.33;;
52104;SDS011;38103;42.776;23.112;2023-07-20T13:17:56;14.63;;;3.42;;
52104;SDS011;38103;42.776;23.112;2023-07-20T13:20:22;13.60;;;3.90;;
52104;SDS011;38103;42.776;23.112;2023-07-20T13:22:47;13.43;;;3.10;;
52104;SDS011;38103;42.776;23.112;2023-07-20T13:25:13;15.57;;;3.17;;
52104;SDS011;38103;42.776;23.112;2023-07-20T13:27:38;14.10;;;3.83;;
52104;SDS011;38103;42.776;23.112;2023-07-20T13:30:03;13.38;;;3.60;;
52104;SDS011;38103;42.776;23.112;2023-07-20T13:32:34;12.13;;;3.08;;
52104;SDS011;38103;42.776;23.112;2023-07-20T13:35:00;13.02;;;3.55;;
52104;SDS011;38103;42.776;23.112;2023-07-20T13:37:26;14.43;;;3.53;;
52104;SDS011;38103;42.776;23.112;2023-07-20T13:39:52;19.73;;;3.28;;
52104;SDS011;38103;42.776;23.112;2023-07-20T13:42:17;12.40;;;3.30;;
52104;SDS011;38103;42.776;23.112;2023-07-20T13:44:43;16.15;;;3.53;;
52104;SDS011;38103;42.776;23.112;2023-07-20T13:47:08;23.02;;;3.13;;
52104;SDS011;38103;42.776;23.112;2023-07-20T13:49:33;13.43;;;3.25;;
52104;SDS011;38103;42.776;23.112;2023-07-20T13:51:59;15.27;;;3.38;;
52104;SDS011;38103;42.776;23.112;2023-07-20T13:54:24;17.65;;;3.15;;
52104;SDS011;38103;42.776;23.112;2023-07-20T13:56:50;14.23;;;3.33;;
52104;SDS011;38103;42.776;23.112;2023-07-20T13:59:16;12.05;;;3.03;;
52104;SDS011;38103;42.776;23.112;2023-07-20T14:01:42;12.70;;;2.95;;
52104;SDS011;38103;42.776;23.112;2023-07-20T14:04:07;12.88;;;3.20;;
52104;SDS011;38103;42.776;23.112;2023-07-20T14:06:34;12.73;;;3.10;;
52104;SDS011;38103;42.776;23.112;2023-07-20T14:08:59;14.57;;;3.63;;
52104;SDS011;38103;42.776;23.112;2023-07-20T14:11:25;13.50;;;3.63;;
52104;SDS011;38103;42.776;23.112;2023-07-20T14:13:51;13.70;;;2.95;;
52104;SDS011;38103;42.776;23.112;2023-07-20T14:16:21;13.27;;;3.10;;
52104;SDS011;38103;42.776;23.112;2023-07-20T14:18:47;14.10;;;2.97;;
52104;SDS011;38103;42.776;23.112;2023-07-20T14:21:14;11.65;;;3.30;;
52104;SDS011;38103;42.776;23.112;2023-07-20T14:23:44;18.40;;;3.63;;
52104;SDS011;38103;42.776;23.112;2023-07-20T14:26:11;12.45;;;3.40;;
52104;SDS011;38103;42.776;23.112;2023-07-20T14:28:37;13.32;;;3.78;;
52104;SDS011;38103;42.776;23.112;2023-07-20T14:31:03;15.40;;;3.28;;
52104;SDS011;38103;42.776;23.112;2023-07-20T14:33:28;11.95;;;3.15;;
52104;SDS011;38103;42.776;23.112;2023-07-20T14:35:53;14.98;;;3.50;;
52104;SDS011;38103;42.776;23.112;2023-07-20T14:38:19;13.90;;;3.85;;
52104;SDS011;38103;42.776;23.112;2023-07-20T14:40:44;14.65;;;3.35;;